createdAt,value
2022-11-03T00:02:16.264Z,8.70
2022-11-03T00:04:44.167Z,9.30
2022-11-03T00:07:12.615Z,9.50
2022-11-03T00:09:40.230Z,9.50
2022-11-03T00:12:08.400Z,10.00
2022-11-03T00:14:35.976Z,10.70
2022-11-03T00:17:03.766Z,11.40
2022-11-03T00:19:31.432Z,11.10
2022-11-03T00:21:59.457Z,12.20
2022-11-03T00:24:27.156Z,12.00
2022-11-03T00:26:54.824Z,11.40
2022-11-03T00:29:22.527Z,11.50
2022-11-03T00:31:50.140Z,11.40
2022-11-03T00:34:17.778Z,11.20
2022-11-03T00:36:45.542Z,10.80
2022-11-03T00:39:13.417Z,10.40
2022-11-03T00:41:41.428Z,10.10
2022-11-03T00:44:10.697Z,10.20
2022-11-03T00:46:38.754Z,9.90
2022-11-03T00:49:06.782Z,10.60
2022-11-03T00:51:37.400Z,9.90
2022-11-03T00:54:07.536Z,8.90
2022-11-03T00:56:41.924Z,9.70
2022-11-03T00:59:10.731Z,8.80
2022-11-03T01:01:47.133Z,8.90
2022-11-03T01:04:36.405Z,8.60
2022-11-03T01:07:06.383Z,8.30
2022-11-03T01:09:40.821Z,8.70
2022-11-03T01:12:14.778Z,8.80
2022-11-03T01:14:43.698Z,8.20
2022-11-03T01:17:16.423Z,9.80
2022-11-03T01:19:44.584Z,9.90
2022-11-03T01:22:14.447Z,10.20
2022-11-03T01:24:43.706Z,10.60
2022-11-03T01:27:15.134Z,8.90
2022-11-03T01:29:43.759Z,10.60
2022-11-03T01:32:12.000Z,10.10
2022-11-03T01:34:41.084Z,10.10
2022-11-03T01:37:08.864Z,9.40
2022-11-03T01:39:36.540Z,9.90
2022-11-03T01:42:04.388Z,9.80
2022-11-03T01:44:36.391Z,9.40
2022-11-03T01:47:22.966Z,9.30
2022-11-03T01:50:20.173Z,10.10
2022-11-03T01:52:57.885Z,9.30
2022-11-03T01:55:36.331Z,10.50
2022-11-03T01:58:11.710Z,10.50
2022-11-03T02:00:44.194Z,10.00
2022-11-03T02:03:13.015Z,9.70
2022-11-03T02:05:45.729Z,10.70
2022-11-03T02:08:23.755Z,10.20
2022-11-03T02:10:52.041Z,9.80
2022-11-03T02:13:24.828Z,9.90
2022-11-03T02:15:59.431Z,10.40
2022-11-03T02:18:32.578Z,9.10
2022-11-03T02:21:28.291Z,10.40
2022-11-03T02:24:32.306Z,11.00
2022-11-03T02:27:00.280Z,9.80
2022-11-03T02:29:28.042Z,10.90
2022-11-03T02:32:21.946Z,11.00
2022-11-03T02:35:17.370Z,9.90
2022-11-03T02:37:52.904Z,9.90
2022-11-03T02:40:30.741Z,9.80
2022-11-03T02:43:00.788Z,10.20
2022-11-03T02:45:30.406Z,10.20
2022-11-03T02:48:01.921Z,10.30
2022-11-03T02:50:33.551Z,11.00
2022-11-03T02:53:01.857Z,11.70
2022-11-03T02:55:38.262Z,10.30
2022-11-03T02:58:28.275Z,11.40
2022-11-03T03:01:17.539Z,10.90
2022-11-03T03:03:57.853Z,12.20
2022-11-03T03:06:39.648Z,12.40
2022-11-03T03:09:18.338Z,12.80
2022-11-03T03:11:49.706Z,11.10
2022-11-03T03:14:37.203Z,11.00
2022-11-03T03:17:39.270Z,12.20
2022-11-03T03:20:41.290Z,11.30
2022-11-03T03:23:20.551Z,9.50
2022-11-03T03:26:00.321Z,9.40
2022-11-03T03:28:43.866Z,10.50
2022-11-03T03:31:14.662Z,11.00
2022-11-03T03:33:47.603Z,9.60
2022-11-03T03:36:20.018Z,10.20
2022-11-03T03:39:02.106Z,11.00
2022-11-03T03:41:32.787Z,13.60
2022-11-03T03:44:05.715Z,11.70
2022-11-03T03:46:42.732Z,9.30
2022-11-03T03:49:10.640Z,9.40
2022-11-03T03:51:38.954Z,9.90
2022-11-03T03:54:06.608Z,10.00
2022-11-03T03:56:51.926Z,9.80
2022-11-03T03:59:19.579Z,8.60
2022-11-03T04:01:47.424Z,10.00
2022-11-03T04:04:15.136Z,8.80
2022-11-03T04:06:42.887Z,8.00
2022-11-03T04:09:10.528Z,7.40
2022-11-03T04:11:57.201Z,8.50
2022-11-03T04:14:43.735Z,7.30
2022-11-03T04:17:39.315Z,6.40
2022-11-03T04:20:32.376Z,7.40
2022-11-03T04:23:00.106Z,8.20
2022-11-03T04:25:27.755Z,8.10
2022-11-03T04:27:55.380Z,7.50
2022-11-03T04:30:25.153Z,7.70
2022-11-03T04:32:54.266Z,8.90
2022-11-03T04:35:25.449Z,7.70
2022-11-03T04:38:20.257Z,8.10
2022-11-03T04:40:59.675Z,7.30
2022-11-03T04:43:34.845Z,6.60
2022-11-03T04:46:02.872Z,6.80
2022-11-03T04:48:31.883Z,7.50
2022-11-03T04:51:10.998Z,7.80
2022-11-03T04:53:48.371Z,6.70
2022-11-03T04:56:24.375Z,7.30
2022-11-03T04:58:54.255Z,7.30
2022-11-03T05:01:24.849Z,7.60
2022-11-03T05:03:54.684Z,8.60
2022-11-03T05:06:27.900Z,7.90
2022-11-03T05:09:01.699Z,7.40
2022-11-03T05:11:36.366Z,7.80
2022-11-03T05:14:18.483Z,8.00
2022-11-03T05:16:48.481Z,6.70
2022-11-03T05:19:32.883Z,8.00
2022-11-03T05:22:04.525Z,8.20
2022-11-03T05:24:35.699Z,8.40
2022-11-03T05:27:03.625Z,8.60
2022-11-03T05:29:39.410Z,8.40
2022-11-03T05:32:28.537Z,7.90
2022-11-03T05:34:57.491Z,8.20
2022-11-03T05:37:32.830Z,8.60
2022-11-03T05:40:21.757Z,9.50
2022-11-03T05:43:00.607Z,8.60
2022-11-03T05:45:34.816Z,8.10
2022-11-03T05:48:13.118Z,7.00
2022-11-03T05:50:42.734Z,8.40
2022-11-03T05:53:29.344Z,8.70
2022-11-03T05:56:01.911Z,9.80
2022-11-03T05:58:41.980Z,9.20
2022-11-03T06:01:28.570Z,9.30
2022-11-03T06:04:00.736Z,8.60
2022-11-03T06:06:35.959Z,10.00
2022-11-03T06:09:14.467Z,8.60
2022-11-03T06:11:44.023Z,8.70
2022-11-03T06:14:25.470Z,8.40
2022-11-03T06:17:02.012Z,8.30
2022-11-03T06:19:37.106Z,11.00
2022-11-03T06:22:36.011Z,9.70
2022-11-03T06:25:29.983Z,9.20
2022-11-03T06:28:04.720Z,9.60
2022-11-03T06:30:36.663Z,9.80
2022-11-03T06:33:19.363Z,10.70
2022-11-03T06:35:52.992Z,11.00
2022-11-03T06:38:30.005Z,10.50
2022-11-03T06:40:59.030Z,10.30
2022-11-03T06:43:41.660Z,11.00
2022-11-03T06:46:20.203Z,12.70
2022-11-03T06:48:48.114Z,12.50
2022-11-03T06:51:23.897Z,13.20
2022-11-03T06:53:55.224Z,13.00
2022-11-03T06:56:28.267Z,14.00
2022-11-03T06:58:57.837Z,15.00
2022-11-03T07:01:31.183Z,15.30
2022-11-03T07:04:14.811Z,15.40
2022-11-03T07:06:46.725Z,14.40
2022-11-03T07:09:22.413Z,14.80
2022-11-03T07:11:58.294Z,13.80
2022-11-03T07:14:33.682Z,13.90
2022-11-03T07:17:05.892Z,14.50
2022-11-03T07:19:38.718Z,16.30
2022-11-03T07:22:18.979Z,18.20
2022-11-03T07:24:50.239Z,16.60
2022-11-03T07:27:30.133Z,15.30
2022-11-03T07:30:08.989Z,16.40
2022-11-03T07:32:36.625Z,15.60
2022-11-03T07:35:16.942Z,16.10
2022-11-03T07:37:48.120Z,11.70
2022-11-03T07:40:26.069Z,15.30
2022-11-03T07:43:00.813Z,13.80
2022-11-03T07:45:45.164Z,14.30
2022-11-03T07:48:47.972Z,12.60
2022-11-03T07:51:21.990Z,14.40
2022-11-03T07:54:09.400Z,13.00
2022-11-03T07:56:46.989Z,11.50
2022-11-03T07:59:28.902Z,11.10
2022-11-03T08:01:58.837Z,12.20
2022-11-03T08:04:35.767Z,12.00
2022-11-03T08:07:03.520Z,11.40
2022-11-03T08:09:31.259Z,11.60
2022-11-03T08:11:58.915Z,12.80
2022-11-03T08:14:27.376Z,11.60
2022-11-03T08:16:55.006Z,11.90
2022-11-03T08:19:22.697Z,10.20
2022-11-03T08:21:50.383Z,12.60
2022-11-03T08:24:18.035Z,9.60
2022-11-03T08:26:45.687Z,13.40
2022-11-03T08:29:13.491Z,12.00
2022-11-03T08:31:41.323Z,11.90
2022-11-03T08:34:09.723Z,11.60
2022-11-03T08:36:37.768Z,8.90
2022-11-03T08:39:05.783Z,10.70
2022-11-03T08:41:33.493Z,10.80
2022-11-03T08:44:01.215Z,8.30
2022-11-03T08:46:29.025Z,11.20
2022-11-03T08:48:56.757Z,7.10
2022-11-03T08:51:24.445Z,7.60
2022-11-03T08:53:54.185Z,8.10
2022-11-03T08:56:22.797Z,8.40
2022-11-03T08:58:50.920Z,9.80
2022-11-03T09:01:18.714Z,9.20
2022-11-03T09:03:46.737Z,9.10
2022-11-03T09:06:14.450Z,7.70
2022-11-03T09:11:29.901Z,9.10
2022-11-03T09:13:57.929Z,9.50
2022-11-03T09:16:26.422Z,9.80
2022-11-03T09:18:54.211Z,7.50
2022-11-03T09:21:21.924Z,8.20
2022-11-03T09:23:49.574Z,7.30
2022-11-03T09:26:17.410Z,9.90
2022-11-03T09:28:45.153Z,10.00
2022-11-03T09:31:12.931Z,8.10
2022-11-03T09:33:40.682Z,7.50
2022-11-03T09:36:08.732Z,8.00
2022-11-03T09:38:36.358Z,6.50
2022-11-03T09:41:13.604Z,5.30
2022-11-03T09:43:53.945Z,7.40
2022-11-03T09:46:21.627Z,7.70
2022-11-03T09:48:49.214Z,7.80
2022-11-03T09:51:22.398Z,7.30
2022-11-03T09:53:50.261Z,7.60
2022-11-03T09:56:22.551Z,6.20
2022-11-03T09:58:54.315Z,7.30
2022-11-03T10:01:24.077Z,7.50
2022-11-03T10:03:52.316Z,6.20
2022-11-03T10:06:21.220Z,3.90
2022-11-03T10:08:49.850Z,6.10
2022-11-03T10:11:18.061Z,5.60
2022-11-03T10:13:53.229Z,4.20
2022-11-03T10:16:24.825Z,5.60
2022-11-03T10:18:53.362Z,5.30
2022-11-03T10:21:31.220Z,4.60
2022-11-03T10:23:58.878Z,4.50
2022-11-03T10:26:26.715Z,3.50
2022-11-03T10:28:59.932Z,3.90
2022-11-03T10:31:40.443Z,3.00
2022-11-03T10:34:36.619Z,3.20
2022-11-03T10:37:14.915Z,3.10
2022-11-03T10:39:45.134Z,3.10
2022-11-03T10:42:28.187Z,2.60
2022-11-03T10:45:19.301Z,2.90
2022-11-03T10:48:02.190Z,5.50
2022-11-03T10:50:30.046Z,5.10
2022-11-03T10:52:58.179Z,3.60
2022-11-03T10:55:27.691Z,2.70
2022-11-03T10:57:57.918Z,4.00
2022-11-03T11:00:26.028Z,4.00
2022-11-03T11:03:01.744Z,4.20
2022-11-03T11:05:29.542Z,3.70
2022-11-03T11:07:59.816Z,3.80
2022-11-03T11:10:31.425Z,4.70
2022-11-03T11:13:15.557Z,3.40
2022-11-03T11:16:00.619Z,3.30
2022-11-03T11:18:28.604Z,3.30
2022-11-03T11:20:59.936Z,4.70
2022-11-03T11:23:27.562Z,4.70
2022-11-03T11:26:10.707Z,5.30
2022-11-03T11:29:08.286Z,4.20
2022-11-03T11:31:42.399Z,4.30
2022-11-03T11:34:10.277Z,5.70
2022-11-03T11:36:40.843Z,5.30
2022-11-03T11:39:34.549Z,4.00
2022-11-03T11:42:14.645Z,4.00
2022-11-03T11:44:50.584Z,4.60
2022-11-03T11:47:33.296Z,5.60
2022-11-03T11:50:07.253Z,4.90
2022-11-03T11:53:04.045Z,5.50
2022-11-03T11:55:38.351Z,5.00
2022-11-03T11:58:18.007Z,5.80
2022-11-03T12:00:59.807Z,5.40
2022-11-03T12:03:37.393Z,5.60
2022-11-03T12:06:06.093Z,5.00
2022-11-03T12:08:34.137Z,5.00
2022-11-03T12:11:06.060Z,4.70
2022-11-03T12:13:44.991Z,6.30
2022-11-03T12:16:36.283Z,4.50
2022-11-03T12:19:43.966Z,4.20
2022-11-03T12:22:39.770Z,4.30
2022-11-03T12:25:36.248Z,3.60
2022-11-03T12:28:04.052Z,3.80
2022-11-03T12:30:36.880Z,3.00
2022-11-03T12:33:07.709Z,3.40
2022-11-03T12:35:35.839Z,3.70
2022-11-03T12:38:03.757Z,3.70
2022-11-03T12:40:31.500Z,4.60
2022-11-03T12:42:59.200Z,3.20
2022-11-03T12:45:27.008Z,4.00
2022-11-03T12:47:54.797Z,2.50
2022-11-03T12:50:22.446Z,3.90
2022-11-03T12:52:50.436Z,4.30
2022-11-03T12:55:18.259Z,3.90
2022-11-03T12:57:46.205Z,3.10
2022-11-03T13:00:15.006Z,3.90
2022-11-03T13:02:42.749Z,3.40
2022-11-03T13:05:15.144Z,3.00
2022-11-03T13:07:43.627Z,3.10
2022-11-03T13:10:11.482Z,3.70
2022-11-03T13:12:41.884Z,3.10
2022-11-03T13:15:11.425Z,3.20
2022-11-03T13:17:59.668Z,3.90
2022-11-03T13:20:27.445Z,2.80
2022-11-03T13:22:55.167Z,3.50
2022-11-03T13:25:24.492Z,2.70
2022-11-03T13:27:54.673Z,2.90
2022-11-03T13:30:27.219Z,2.30
2022-11-03T13:32:54.983Z,3.30
2022-11-03T13:35:23.207Z,3.30
2022-11-03T13:37:51.032Z,3.10
2022-11-03T13:40:50.289Z,2.80
2022-11-03T13:43:07.653Z,2.80
2022-11-03T13:45:35.563Z,3.60
2022-11-03T13:49:04.056Z,4.20
2022-11-03T13:50:53.651Z,3.80
2022-11-03T13:56:13.213Z,3.80
2022-11-03T14:01:33.200Z,3.70
2022-11-03T14:06:48.837Z,3.20
2022-11-03T14:09:16.478Z,3.50
2022-11-03T14:12:02.983Z,4.20
2022-11-03T14:14:30.687Z,3.60
2022-11-03T14:16:58.398Z,3.70
2022-11-03T14:19:34.461Z,3.40
2022-11-03T14:22:05.993Z,3.10
2022-11-03T14:24:34.485Z,3.30
2022-11-03T14:27:02.190Z,3.10
2022-11-03T14:29:29.795Z,3.40
2022-11-03T14:31:57.498Z,3.50
2022-11-03T14:34:25.198Z,3.00
2022-11-03T14:36:53.120Z,3.50
2022-11-03T14:39:21.028Z,3.80
2022-11-03T14:42:04.150Z,3.30
2022-11-03T14:44:34.701Z,3.40
2022-11-03T14:47:05.030Z,3.80
2022-11-03T14:49:34.898Z,3.70
2022-11-03T14:52:06.075Z,3.80
2022-11-03T14:54:35.572Z,4.00
2022-11-03T14:57:05.166Z,3.90
2022-11-03T14:59:33.608Z,3.30
2022-11-03T15:02:02.379Z,4.00
2022-11-03T15:04:30.214Z,4.80
2022-11-03T15:06:57.800Z,4.60
2022-11-03T15:09:25.558Z,3.60
2022-11-03T15:11:53.299Z,4.30
2022-11-03T15:14:20.986Z,4.10
2022-11-03T15:16:48.766Z,5.20
2022-11-03T15:19:16.527Z,6.40
2022-11-03T15:21:44.576Z,5.70
2022-11-03T15:26:59.984Z,5.20
2022-11-03T15:29:27.704Z,8.10
2022-11-03T15:31:55.337Z,9.50
2022-11-03T15:34:23.083Z,8.10
2022-11-03T15:36:50.776Z,5.80
2022-11-03T15:39:18.391Z,5.50
2022-11-03T15:41:46.078Z,6.10
2022-11-03T15:44:13.745Z,6.40
2022-11-03T15:46:41.417Z,5.30
2022-11-03T15:49:09.025Z,5.40
2022-11-03T15:51:36.763Z,6.70
2022-11-03T15:54:04.751Z,5.50
2022-11-03T15:56:32.415Z,5.10
2022-11-03T15:59:00.308Z,5.10
2022-11-03T16:01:28.307Z,4.40
2022-11-03T16:03:55.958Z,4.60
2022-11-03T16:06:40.212Z,6.20
2022-11-03T16:09:11.253Z,6.20
2022-11-03T16:11:38.928Z,5.40
2022-11-03T16:14:06.566Z,7.50
2022-11-03T16:16:34.235Z,8.20
2022-11-03T16:19:01.871Z,6.70
2022-11-03T16:21:29.888Z,7.40
2022-11-03T16:23:57.673Z,5.90
2022-11-03T16:26:25.399Z,6.40
2022-11-03T16:28:53.073Z,6.50
2022-11-03T16:31:20.922Z,6.80
2022-11-03T16:33:48.640Z,7.10
2022-11-03T16:36:16.253Z,6.30
2022-11-03T16:38:44.027Z,6.10
2022-11-03T16:41:12.418Z,6.80
2022-11-03T16:43:40.066Z,6.30
2022-11-03T16:46:07.696Z,6.00
2022-11-03T16:48:35.362Z,6.80
2022-11-03T16:51:03.132Z,7.00
2022-11-03T16:53:30.820Z,8.10
2022-11-03T16:55:58.545Z,7.20
2022-11-03T16:58:26.246Z,7.40
2022-11-03T17:00:53.977Z,6.90
2022-11-03T17:03:21.666Z,6.80
2022-11-03T17:05:49.298Z,6.80
2022-11-03T17:08:46.840Z,5.30
2022-11-03T17:11:05.057Z,5.80
2022-11-03T17:13:32.684Z,5.00
2022-11-03T17:16:00.495Z,5.50
2022-11-03T17:18:28.475Z,7.10
2022-11-03T17:20:56.212Z,7.30
2022-11-03T17:23:24.267Z,7.40
2022-11-03T17:25:52.162Z,6.40
2022-11-03T17:28:19.934Z,6.90
2022-11-03T17:30:48.148Z,6.20
2022-11-03T17:33:18.236Z,6.40
2022-11-03T17:35:46.867Z,5.50
2022-11-03T17:38:17.629Z,5.40
2022-11-03T17:40:48.010Z,6.20
2022-11-03T17:43:27.030Z,6.70
2022-11-03T17:45:54.820Z,6.10
2022-11-03T17:48:24.046Z,7.40
2022-11-03T17:50:56.103Z,19.20
2022-11-03T17:53:28.736Z,10.00
2022-11-03T17:58:47.521Z,13.00
2022-11-03T18:01:23.773Z,12.10
2022-11-03T18:03:54.648Z,8.00
2022-11-03T18:06:22.664Z,9.50
2022-11-03T18:08:50.430Z,8.10
2022-11-03T18:11:47.798Z,8.20
2022-11-03T18:14:16.060Z,7.60
2022-11-03T18:16:43.680Z,7.10
2022-11-03T18:19:14.309Z,7.90
2022-11-03T18:21:42.325Z,9.30
2022-11-03T18:24:16.980Z,6.60
2022-11-03T18:26:46.240Z,10.60
2022-11-03T18:29:13.964Z,8.20
2022-11-03T18:31:47.385Z,8.00
2022-11-03T18:34:24.237Z,13.50
2022-11-03T18:36:52.829Z,17.70
2022-11-03T18:39:28.815Z,8.70
2022-11-03T18:41:56.485Z,6.30
2022-11-03T18:44:30.801Z,6.70
2022-11-03T18:46:58.827Z,6.20
2022-11-03T18:49:27.649Z,7.20
2022-11-03T18:52:03.577Z,8.10
2022-11-03T18:54:34.835Z,8.80
2022-11-03T18:57:04.149Z,9.80
2022-11-03T18:59:40.381Z,7.00
2022-11-03T19:02:21.797Z,6.90
2022-11-03T19:04:50.044Z,10.70
2022-11-03T19:07:28.703Z,11.00
2022-11-03T19:09:56.395Z,12.50
2022-11-03T19:12:24.195Z,10.70
2022-11-03T19:14:52.079Z,17.20
2022-11-03T19:17:24.018Z,18.90
2022-11-03T19:19:53.389Z,18.80
2022-11-03T19:22:23.828Z,15.10
2022-11-03T19:24:51.898Z,15.50
2022-11-03T19:27:29.869Z,16.50
2022-11-03T19:30:00.296Z,14.40
2022-11-03T19:32:33.400Z,24.20
2022-11-03T19:35:31.183Z,11.60
2022-11-03T19:38:03.926Z,14.60
2022-11-03T19:40:32.948Z,17.00
2022-11-03T19:43:00.914Z,12.10
2022-11-03T19:45:29.052Z,25.00
2022-11-03T19:50:49.168Z,16.80
2022-11-03T19:53:23.771Z,12.00
2022-11-03T19:55:53.125Z,9.70
2022-11-03T19:58:27.546Z,11.70
2022-11-03T20:00:56.241Z,21.10
2022-11-03T20:03:25.103Z,13.60
2022-11-03T20:05:56.709Z,22.90
2022-11-03T20:08:32.185Z,21.90
2022-11-03T20:11:00.770Z,17.20
2022-11-03T20:13:39.242Z,17.40
2022-11-03T20:16:17.208Z,20.40
2022-11-03T20:18:45.193Z,21.30
2022-11-03T20:21:19.974Z,15.70
2022-11-03T20:23:49.239Z,9.50
2022-11-03T20:26:21.972Z,8.50
2022-11-03T20:28:51.082Z,11.60
2022-11-03T20:31:19.278Z,17.80
2022-11-03T20:33:46.872Z,13.40
2022-11-03T20:36:19.236Z,11.70
2022-11-03T20:38:59.527Z,14.30
2022-11-03T20:41:31.835Z,11.50
2022-11-03T20:43:59.516Z,19.80
2022-11-03T20:46:35.256Z,16.70
2022-11-03T20:49:03.033Z,26.90
2022-11-03T20:51:35.040Z,15.40
2022-11-03T20:54:10.984Z,21.20
2022-11-03T20:56:38.653Z,18.00
2022-11-03T20:59:06.333Z,13.50
2022-11-03T21:01:34.303Z,14.60
2022-11-03T21:04:03.506Z,16.10
2022-11-03T21:06:32.838Z,16.50
2022-11-03T21:09:00.628Z,14.50
2022-11-03T21:11:36.780Z,12.30
2022-11-03T21:14:22.002Z,13.40
2022-11-03T21:17:08.756Z,11.20
2022-11-03T21:19:55.367Z,9.30
2022-11-03T21:22:57.670Z,8.00
2022-11-03T21:25:26.174Z,8.90
2022-11-03T21:27:54.935Z,9.80
2022-11-03T21:30:23.636Z,7.60
2022-11-03T21:32:51.439Z,9.40
2022-11-03T21:35:21.694Z,10.50
2022-11-03T21:37:49.436Z,8.00
2022-11-03T21:40:17.981Z,10.00
2022-11-03T21:43:05.011Z,8.10
2022-11-03T21:45:32.996Z,9.50
2022-11-03T21:48:19.704Z,10.70
2022-11-03T21:50:48.098Z,9.30
2022-11-03T21:53:15.768Z,11.10
2022-11-03T21:55:43.376Z,11.00
2022-11-03T21:58:11.085Z,9.00
2022-11-03T22:00:38.719Z,8.00
2022-11-03T22:03:07.010Z,9.40
2022-11-03T22:05:35.085Z,10.60
2022-11-03T22:08:02.816Z,8.60
2022-11-03T22:10:30.563Z,8.20
2022-11-03T22:12:58.303Z,9.10
2022-11-03T22:15:44.942Z,9.10
2022-11-03T22:18:12.957Z,7.40
2022-11-03T22:20:59.582Z,9.20
2022-11-03T22:23:46.193Z,8.90
2022-11-03T22:26:35.342Z,7.20
2022-11-03T22:29:22.924Z,9.00
2022-11-03T22:31:50.566Z,9.40
2022-11-03T22:34:36.937Z,9.20
2022-11-03T22:37:04.683Z,8.30
2022-11-03T22:39:51.260Z,8.10
2022-11-03T22:42:37.617Z,8.50
2022-11-03T22:45:24.911Z,8.10
2022-11-03T22:47:57.134Z,9.20
2022-11-03T22:50:25.209Z,8.60
2022-11-03T22:52:52.884Z,6.30
2022-11-03T22:55:20.502Z,7.20
2022-11-03T22:57:48.514Z,9.90
2022-11-03T23:00:18.373Z,10.40
2022-11-03T23:02:45.988Z,9.80
2022-11-03T23:05:13.748Z,10.70
2022-11-03T23:07:41.894Z,10.00
2022-11-03T23:10:09.869Z,9.10
2022-11-03T23:12:37.580Z,8.90
2022-11-03T23:15:24.981Z,10.00
2022-11-03T23:18:11.620Z,9.40
2022-11-03T23:20:58.145Z,8.80
2022-11-03T23:23:44.686Z,7.20
2022-11-03T23:26:12.376Z,9.40
2022-11-03T23:28:40.626Z,7.80
2022-11-03T23:31:09.473Z,9.40
2022-11-03T23:33:37.430Z,9.10
2022-11-03T23:36:08.612Z,7.30
2022-11-03T23:38:39.445Z,6.80
2022-11-03T23:41:17.010Z,9.60
2022-11-03T23:43:47.338Z,7.80
2022-11-03T23:46:37.394Z,10.50
2022-11-03T23:49:06.451Z,8.80
2022-11-03T23:51:36.076Z,11.20
2022-11-03T23:54:07.325Z,7.60
2022-11-03T23:56:58.131Z,9.30
2022-11-03T23:59:27.604Z,9.30
